Time;durP1;ratioP1;P1;durP2;ratioP2;P2;SDS_P1;SDS_P2;PMS_P1;PMS_P2;Temp;Humidity;BMP_temperature;BMP_pressure;BME280_temperature;BME280_humidity;BME280_pressure;Samples;Min_cycle;Max_cycle;Signal;HPM_P1;HPM_P2
2021/05/23 00:00:24;;;;;;;5.10;4.40;;;10.50;99.90;;;;;;5092597;28;20204;-73
2021/05/23 00:02:51;;;;;;;6.17;4.27;;;10.60;99.90;;;;;;5100467;28;20293;-73
2021/05/23 00:05:20;;;;;;;4.67;3.70;;;10.50;99.90;;;;;;5112342;28;20266;-73
2021/05/23 00:07:51;;;;;;;4.70;3.67;;;10.60;99.90;;;;;;5105452;28;20213;-73
2021/05/23 00:10:18;;;;;;;4.90;4.13;;;10.60;99.90;;;;;;5091546;28;20208;-73
2021/05/23 00:12:45;;;;;;;3.87;3.50;;;10.60;99.90;;;;;;5097954;28;20653;-73
2021/05/23 00:15:16;;;;;;;4.60;3.57;;;10.60;99.90;;;;;;5105731;28;20212;-72
2021/05/23 00:17:43;;;;;;;4.83;3.80;;;10.60;99.90;;;;;;5095015;28;20544;-72
2021/05/23 00:20:11;;;;;;;4.57;3.73;;;10.50;99.90;;;;;;5097377;28;20207;-73
2021/05/23 00:22:38;;;;;;;4.83;3.73;;;10.50;99.90;;;;;;5095996;28;20542;-72
2021/05/23 00:25:05;;;;;;;4.00;3.60;;;10.50;99.90;;;;;;5092264;28;20643;-73
2021/05/23 00:27:32;;;;;;;4.10;3.50;;;10.50;99.90;;;;;;5099175;28;20225;-72
2021/05/23 00:29:58;;;;;;;5.47;3.90;;;10.50;99.90;;;;;;5109685;28;20208;-72
2021/05/23 00:32:25;;;;;;;3.97;3.57;;;10.50;99.90;;;;;;5109608;28;20541;-72
2021/05/23 00:34:52;;;;;;;4.77;4.00;;;10.50;99.90;;;;;;5109988;28;20716;-73
2021/05/23 00:37:18;;;;;;;4.07;3.60;;;10.40;99.90;;;;;;5094014;28;20289;-74
2021/05/23 00:39:47;;;;;;;4.93;4.00;;;10.40;99.90;;;;;;5098945;28;20198;-73
2021/05/23 00:42:14;;;;;;;3.90;3.60;;;10.40;99.90;;;;;;5105698;28;20201;-72
2021/05/23 00:44:40;;;;;;;5.17;3.60;;;10.50;99.90;;;;;;5103105;28;20561;-73
2021/05/23 00:47:06;;;;;;;4.17;3.77;;;10.50;99.90;;;;;;5101479;28;20217;-73
2021/05/23 00:49:37;;;;;;;4.13;3.73;;;10.50;99.90;;;;;;5098041;28;20206;-74
2021/05/23 00:52:05;;;;;;;4.80;3.83;;;10.50;99.90;;;;;;5097574;28;20690;-74
2021/05/23 00:54:32;;;;;;;3.93;3.57;;;10.60;99.90;;;;;;5088578;28;20208;-73
2021/05/23 00:56:59;;;;;;;4.33;3.93;;;10.50;99.90;;;;;;5095259;28;20705;-73
2021/05/23 00:59:26;;;;;;;5.10;3.93;;;10.50;99.90;;;;;;5098376;28;20205;-73
2021/05/23 01:02:32;;;;;;;4.03;3.63;;;10.50;99.90;;;;;;5093162;28;20201;-73
2021/05/23 01:04:59;;;;;;;4.17;3.47;;;10.50;99.90;;;;;;5089321;28;20283;-73
2021/05/23 01:07:27;;;;;;;3.83;3.40;;;10.50;99.90;;;;;;5104686;28;20225;-73
2021/05/23 01:09:54;;;;;;;3.80;3.37;;;10.50;99.90;;;;;;5095361;28;20293;-73
2021/05/23 01:12:47;;;;;;;4.63;3.30;;;10.50;99.90;;;;;;5096209;28;20270;-73
2021/05/23 01:15:14;;;;;;;3.97;3.57;;;10.40;99.90;;;;;;5111449;28;20212;-73
2021/05/23 01:17:46;;;;;;;3.57;3.17;;;10.50;99.90;;;;;;5099226;28;20242;-73
2021/05/23 01:20:22;;;;;;;3.93;3.10;;;10.60;99.90;;;;;;5104330;28;20665;-73
2021/05/23 01:23:01;;;;;;;4.03;3.10;;;10.60;99.90;;;;;;5089141;28;20643;-74
2021/05/23 01:25:29;;;;;;;6.40;3.77;;;10.50;99.90;;;;;;5092706;28;20204;-73
2021/05/23 01:27:57;;;;;;;7.30;3.30;;;10.50;99.90;;;;;;5105256;28;20221;-73
2021/05/23 01:30:27;;;;;;;3.57;3.03;;;10.50;99.90;;;;;;5092375;28;20217;-73
2021/05/23 01:32:59;;;;;;;3.93;3.00;;;10.60;99.90;;;;;;5104421;28;20258;-73
2021/05/23 01:35:31;;;;;;;2.93;2.67;;;10.60;99.90;;;;;;5090528;28;20559;-73
2021/05/23 01:38:01;;;;;;;4.13;3.00;;;10.70;99.90;;;;;;5103967;28;20637;-73
2021/05/23 01:40:32;;;;;;;4.23;3.00;;;10.60;99.90;;;;;;5099547;28;20549;-74
2021/05/23 01:42:59;;;;;;;3.97;2.80;;;10.60;99.90;;;;;;5109818;28;20205;-73
2021/05/23 01:45:26;;;;;;;4.63;3.63;;;10.60;99.90;;;;;;5107882;28;20209;-74
2021/05/23 01:47:53;;;;;;;5.10;3.27;;;10.60;99.90;;;;;;5089507;28;20274;-74
2021/05/23 01:50:20;;;;;;;4.07;3.20;;;10.60;99.90;;;;;;5104434;28;20201;-74
2021/05/23 01:52:49;;;;;;;5.10;3.50;;;10.60;99.90;;;;;;5098091;28;20310;-74
2021/05/23 01:55:16;;;;;;;4.53;3.73;;;10.60;99.90;;;;;;5089427;28;20198;-74
2021/05/23 01:57:44;;;;;;;5.77;3.60;;;10.60;99.90;;;;;;5109585;28;20234;-74
2021/05/23 02:00:12;;;;;;;4.20;3.80;;;10.50;99.90;;;;;;5106841;28;20197;-74
2021/05/23 02:02:38;;;;;;;4.23;3.27;;;10.50;99.90;;;;;;5102160;28;20533;-74
2021/05/23 02:05:07;;;;;;;4.60;3.50;;;10.50;99.90;;;;;;5101247;28;20225;-74
2021/05/23 02:07:33;;;;;;;4.20;3.77;;;10.50;99.90;;;;;;5092201;28;20229;-74
2021/05/23 02:10:00;;;;;;;6.47;4.23;;;10.50;99.90;;;;;;5100336;28;20200;-72
2021/05/23 02:12:27;;;;;;;5.30;4.40;;;10.40;99.90;;;;;;5098959;28;20286;-73
2021/05/23 02:14:54;;;;;;;5.30;3.30;;;10.40;99.90;;;;;;5107344;28;20574;-73
2021/05/23 02:17:20;;;;;;;3.97;3.43;;;10.40;99.90;;;;;;5098457;28;20208;-73
2021/05/23 02:19:49;;;;;;;5.03;3.40;;;10.50;99.90;;;;;;5104858;28;20659;-73
2021/05/23 02:22:16;;;;;;;4.87;3.53;;;10.50;99.90;;;;;;5102302;28;20236;-73
2021/05/23 02:24:44;;;;;;;5.13;3.13;;;10.50;99.90;;;;;;5101272;28;20274;-73
2021/05/23 02:27:10;;;;;;;5.03;3.53;;;10.50;99.90;;;;;;5091774;28;20307;-73
2021/05/23 02:29:37;;;;;;;3.90;3.50;;;10.50;99.90;;;;;;5097783;28;20255;-73
2021/05/23 02:32:07;;;;;;;5.67;3.47;;;10.40;99.90;;;;;;5097978;28;20202;-73
2021/05/23 02:34:34;;;;;;;5.60;4.00;;;10.40;99.90;;;;;;5103630;28;20258;-73
2021/05/23 02:37:01;;;;;;;5.03;4.30;;;10.50;99.90;;;;;;5095454;28;20574;-73
2021/05/23 02:39:27;;;;;;;4.83;3.60;;;10.60;99.90;;;;;;5101430;28;20739;-73
2021/05/23 02:41:54;;;;;;;4.53;3.47;;;10.60;99.90;;;;;;5105194;28;20288;-73
2021/05/23 02:44:20;;;;;;;4.77;3.13;;;10.60;99.90;;;;;;5101125;28;20209;-73
2021/05/23 02:46:47;;;;;;;3.20;2.97;;;10.50;99.90;;;;;;5103157;28;20673;-73
2021/05/23 02:49:15;;;;;;;4.10;2.80;;;10.60;99.90;;;;;;5093815;28;20683;-73
2021/05/23 02:51:43;;;;;;;6.03;3.07;;;10.50;99.90;;;;;;5097655;28;20193;-73
2021/05/23 02:54:09;;;;;;;5.53;3.20;;;10.50;99.90;;;;;;5094776;28;20523;-73
2021/05/23 02:56:36;;;;;;;5.43;3.27;;;10.60;99.90;;;;;;5099123;28;20204;-73
2021/05/23 02:59:03;;;;;;;4.90;3.20;;;10.60;99.90;;;;;;5106959;28;20201;-73
2021/05/23 03:01:30;;;;;;;4.17;3.20;;;10.60;99.90;;;;;;5104984;28;20198;-73
2021/05/23 03:03:56;;;;;;;4.47;3.20;;;10.50;99.90;;;;;;5098010;28;20651;-73
2021/05/23 03:06:24;;;;;;;5.73;3.67;;;10.50;99.90;;;;;;5101132;28;20538;-73
2021/05/23 03:08:52;;;;;;;4.03;3.37;;;10.60;99.90;;;;;;5092330;28;20275;-73
2021/05/23 03:11:18;;;;;;;6.00;3.70;;;10.60;99.90;;;;;;5094326;28;20619;-73
2021/05/23 03:13:45;;;;;;;3.03;2.73;;;10.60;99.90;;;;;;5105126;28;20224;-73
2021/05/23 03:16:11;;;;;;;3.37;2.60;;;10.50;99.90;;;;;;5101367;28;20193;-73
2021/05/23 03:18:38;;;;;;;3.73;3.23;;;10.50;99.90;;;;;;5095191;28;20216;-73
2021/05/23 03:21:05;;;;;;;3.80;2.60;;;10.50;99.90;;;;;;5092698;28;20698;-73
2021/05/23 03:23:32;;;;;;;4.37;3.00;;;10.50;99.90;;;;;;5109829;28;20197;-73
2021/05/23 03:25:58;;;;;;;8.27;3.87;;;10.40;99.90;;;;;;5097527;28;20198;-73
2021/05/23 03:28:25;;;;;;;3.77;2.97;;;10.30;99.90;;;;;;5097679;28;20216;-73
2021/05/23 03:30:52;;;;;;;3.67;3.33;;;10.20;99.90;;;;;;5105938;28;20231;-73
2021/05/23 03:33:18;;;;;;;4.43;3.77;;;10.30;99.90;;;;;;5099642;28;20247;-73
2021/05/23 03:35:45;;;;;;;3.50;3.20;;;10.30;99.90;;;;;;5097215;28;20213;-73
2021/05/23 03:38:11;;;;;;;4.37;3.43;;;10.20;99.90;;;;;;5098380;28;20200;-73
2021/05/23 03:40:39;;;;;;;5.63;3.10;;;10.10;99.90;;;;;;5098111;28;20667;-73
2021/05/23 03:43:07;;;;;;;3.90;3.10;;;10.00;99.90;;;;;;5092677;28;20562;-73
2021/05/23 03:45:34;;;;;;;3.50;2.77;;;10.00;99.90;;;;;;5097609;28;20639;-74
2021/05/23 03:48:01;;;;;;;3.63;3.10;;;9.90;99.90;;;;;;5099624;28;20219;-74
2021/05/23 03:50:28;;;;;;;3.47;3.10;;;10.00;99.90;;;;;;5105330;28;20646;-72
2021/05/23 03:52:56;;;;;;;3.50;3.20;;;10.00;99.90;;;;;;5105325;28;20209;-72
2021/05/23 03:55:25;;;;;;;3.40;3.10;;;10.00;99.90;;;;;;5096906;28;20197;-73
2021/05/23 03:57:53;;;;;;;4.00;3.30;;;9.90;99.90;;;;;;5096171;28;20560;-72
2021/05/23 04:00:22;;;;;;;4.00;3.40;;;9.90;99.90;;;;;;5100375;28;20206;-72
2021/05/23 04:02:52;;;;;;;4.13;3.70;;;9.90;99.90;;;;;;5097415;28;20216;-72
2021/05/23 04:05:19;;;;;;;7.00;3.90;;;9.90;99.90;;;;;;5100578;28;20218;-72
2021/05/23 04:07:46;;;;;;;4.30;3.60;;;10.00;99.90;;;;;;5105611;28;20270;-74
2021/05/23 04:10:16;;;;;;;4.60;4.10;;;10.10;99.90;;;;;;5105325;28;20213;-74
2021/05/23 04:12:45;;;;;;;5.67;4.13;;;10.10;99.90;;;;;;5093317;28;20212;-72
2021/05/23 04:15:15;;;;;;;4.53;4.10;;;10.10;99.90;;;;;;5101545;28;20209;-72
2021/05/23 04:17:41;;;;;;;5.07;4.27;;;10.00;99.90;;;;;;5090106;28;20205;-72
2021/05/23 04:20:10;;;;;;;8.30;5.80;;;10.10;99.90;;;;;;5104787;28;20202;-72
2021/05/23 04:22:37;;;;;;;7.13;5.67;;;10.10;99.90;;;;;;5095092;28;20198;-73
2021/05/23 04:25:08;;;;;;;6.50;5.00;;;10.10;99.90;;;;;;5100889;28;20197;-73
2021/05/23 04:27:34;;;;;;;6.00;5.10;;;10.10;99.90;;;;;;5090824;28;20221;-73
2021/05/23 04:30:01;;;;;;;6.57;4.70;;;10.10;99.90;;;;;;5099102;28;20651;-72
2021/05/23 04:32:28;;;;;;;5.83;4.60;;;10.20;99.90;;;;;;5095325;28;20194;-74
2021/05/23 04:34:55;;;;;;;6.93;5.47;;;10.20;99.90;;;;;;5092107;28;20205;-74
2021/05/23 04:37:21;;;;;;;7.93;5.00;;;10.20;99.90;;;;;;5093054;28;20301;-74
2021/05/23 04:39:47;;;;;;;6.07;4.60;;;10.20;99.90;;;;;;5099769;28;20253;-74
2021/05/23 04:42:14;;;;;;;7.93;5.10;;;10.20;99.90;;;;;;5106087;28;20205;-74
2021/05/23 04:44:40;;;;;;;6.80;5.53;;;10.20;99.90;;;;;;5091644;28;20655;-74
2021/05/23 04:47:06;;;;;;;5.93;5.17;;;10.20;99.90;;;;;;5098327;28;20270;-74
2021/05/23 04:49:38;;;;;;;7.43;5.30;;;10.20;99.90;;;;;;5091328;28;20197;-74
2021/05/23 04:52:06;;;;;;;7.57;5.30;;;10.20;99.90;;;;;;5097053;28;20210;-74
2021/05/23 04:54:32;;;;;;;6.73;5.00;;;10.30;99.90;;;;;;5096403;28;20612;-73
2021/05/23 04:56:58;;;;;;;5.97;5.10;;;10.30;99.90;;;;;;5096923;28;20212;-74
2021/05/23 04:59:25;;;;;;;7.73;5.73;;;10.40;99.90;;;;;;5092517;28;20210;-74
2021/05/23 05:01:51;;;;;;;5.17;4.67;;;10.30;99.90;;;;;;5100418;28;20198;-74
2021/05/23 05:04:17;;;;;;;6.07;4.60;;;10.30;99.90;;;;;;5109282;28;20378;-74
2021/05/23 05:06:44;;;;;;;6.17;4.50;;;10.30;99.90;;;;;;5093204;28;20209;-74
2021/05/23 05:09:11;;;;;;;5.40;4.10;;;10.30;99.90;;;;;;5097659;28;20197;-74
2021/05/23 05:11:37;;;;;;;5.67;4.73;;;10.20;99.90;;;;;;5100222;28;20713;-74
2021/05/23 05:14:04;;;;;;;4.20;3.80;;;10.30;99.90;;;;;;5106861;28;20603;-74
2021/05/23 05:16:30;;;;;;;4.87;4.30;;;10.30;99.90;;;;;;5099565;28;20565;-75
2021/05/23 05:18:57;;;;;;;3.93;3.60;;;10.40;99.90;;;;;;5093648;28;20223;-74
2021/05/23 05:21:24;;;;;;;4.33;3.90;;;10.30;99.90;;;;;;5098409;28;20269;-74
2021/05/23 05:23:51;;;;;;;5.90;3.97;;;10.40;99.90;;;;;;5093687;28;20201;-74
2021/05/23 05:26:17;;;;;;;4.33;3.67;;;10.40;99.90;;;;;;5101356;28;20212;-74
2021/05/23 05:28:43;;;;;;;4.23;3.67;;;10.30;99.90;;;;;;5088028;28;20217;-74
2021/05/23 05:31:10;;;;;;;3.90;3.53;;;10.30;99.90;;;;;;5099079;28;20200;-74
2021/05/23 05:33:37;;;;;;;4.10;3.70;;;10.30;99.90;;;;;;5096420;28;20292;-74
2021/05/23 05:36:03;;;;;;;4.73;3.80;;;10.10;99.90;;;;;;5102268;28;20559;-74
2021/05/23 05:38:30;;;;;;;5.33;4.10;;;10.10;99.90;;;;;;5102157;28;20194;-74
2021/05/23 05:40:57;;;;;;;5.33;4.10;;;10.20;99.90;;;;;;5097822;28;20201;-74
2021/05/23 05:43:24;;;;;;;4.77;3.90;;;10.20;99.90;;;;;;5096004;28;20298;-74
2021/05/23 05:45:50;;;;;;;9.83;4.53;;;10.20;99.90;;;;;;5102002;28;20675;-74
2021/05/23 05:48:17;;;;;;;5.60;4.50;;;10.20;99.90;;;;;;5100515;28;20237;-74
2021/05/23 05:50:43;;;;;;;7.10;5.20;;;10.20;99.90;;;;;;5102739;28;20230;-74
2021/05/23 05:53:10;;;;;;;4.90;4.40;;;10.10;99.90;;;;;;5100927;28;20205;-74
2021/05/23 05:55:36;;;;;;;7.40;5.20;;;10.10;99.90;;;;;;5101953;28;20695;-74
2021/05/23 05:58:03;;;;;;;7.30;5.53;;;10.40;99.90;;;;;;5108749;28;20197;-74
2021/05/23 06:00:30;;;;;;;13.37;5.97;;;10.30;99.90;;;;;;5103555;28;20257;-74
2021/05/23 06:02:57;;;;;;;8.73;5.93;;;10.30;99.90;;;;;;5099311;28;20288;-73
2021/05/23 06:05:23;;;;;;;6.80;5.70;;;10.30;99.90;;;;;;5101193;28;20208;-74
2021/05/23 06:07:49;;;;;;;7.50;5.70;;;10.30;99.90;;;;;;5101982;28;20622;-74
2021/05/23 06:10:17;;;;;;;11.70;5.87;;;10.30;99.90;;;;;;5108324;28;20205;-74
2021/05/23 06:12:43;;;;;;;8.23;5.90;;;10.30;99.90;;;;;;5102423;28;20205;-74
2021/05/23 06:15:12;;;;;;;7.63;5.60;;;10.40;99.90;;;;;;5103164;28;20197;-74
2021/05/23 06:17:39;;;;;;;6.10;5.00;;;10.50;99.90;;;;;;5098906;28;20565;-74
2021/05/23 06:20:07;;;;;;;7.70;5.00;;;10.40;99.90;;;;;;5105970;28;20208;-74
2021/05/23 06:22:33;;;;;;;7.67;5.37;;;10.50;99.90;;;;;;5103573;28;20205;-73
2021/05/23 06:24:59;;;;;;;7.30;4.93;;;10.60;99.90;;;;;;5103000;28;20391;-74
2021/05/23 06:27:26;;;;;;;7.80;5.23;;;10.60;99.90;;;;;;5104085;28;20619;-74
2021/05/23 06:29:52;;;;;;;9.27;5.37;;;10.50;99.90;;;;;;5101475;28;20266;-74
2021/05/23 06:32:19;;;;;;;9.93;5.53;;;10.60;99.90;;;;;;5106210;28;20208;-74
2021/05/23 06:34:45;;;;;;;7.73;5.27;;;10.80;99.90;;;;;;5100516;28;20198;-74
2021/05/23 06:37:12;;;;;;;6.53;4.60;;;10.90;99.90;;;;;;5102527;28;20190;-74
2021/05/23 06:39:39;;;;;;;7.23;4.90;;;10.80;99.90;;;;;;5105026;28;20205;-74
2021/05/23 06:42:05;;;;;;;7.17;4.60;;;10.90;99.90;;;;;;5104087;28;20663;-74
2021/05/23 06:44:32;;;;;;;6.30;4.00;;;10.80;99.90;;;;;;5104888;28;20206;-73
2021/05/23 06:46:59;;;;;;;7.87;4.57;;;11.00;99.90;;;;;;5102824;28;20204;-72
2021/05/23 06:49:26;;;;;;;5.83;4.13;;;11.00;99.90;;;;;;5102860;28;20647;-72
2021/05/23 06:51:53;;;;;;;5.57;4.10;;;11.20;99.90;;;;;;5106105;28;20205;-72
2021/05/23 06:54:19;;;;;;;6.50;4.27;;;11.00;99.90;;;;;;5096505;28;20606;-72
2021/05/23 06:56:46;;;;;;;7.20;4.43;;;11.20;99.90;;;;;;5103104;28;20210;-72
2021/05/23 06:59:12;;;;;;;6.23;4.00;;;11.20;99.90;;;;;;5099480;28;20205;-72
2021/05/23 07:01:39;;;;;;;5.37;3.93;;;11.00;99.90;;;;;;5105563;28;20658;-72
2021/05/23 07:04:06;;;;;;;5.37;4.57;;;11.20;99.90;;;;;;5098356;28;20663;-72
2021/05/23 07:06:33;;;;;;;6.60;4.67;;;11.10;99.90;;;;;;5105008;28;20651;-73
2021/05/23 07:09:00;;;;;;;6.77;3.87;;;11.20;99.90;;;;;;5103897;28;20217;-72
2021/05/23 07:11:26;;;;;;;9.10;4.10;;;11.10;99.90;;;;;;5102443;28;20193;-73
2021/05/23 07:13:53;;;;;;;7.40;3.77;;;11.30;99.90;;;;;;5105634;28;20197;-73
2021/05/23 07:16:20;;;;;;;8.60;4.60;;;11.20;99.90;;;;;;5101889;28;20247;-73
2021/05/23 07:18:47;;;;;;;9.03;5.03;;;11.50;99.90;;;;;;5095868;28;20210;-73
2021/05/23 07:21:13;;;;;;;6.83;3.90;;;11.60;99.90;;;;;;5099293;28;20582;-73
2021/05/23 07:23:41;;;;;;;9.30;4.23;;;11.50;99.90;;;;;;5098805;28;20200;-72
2021/05/23 07:26:07;;;;;;;8.57;4.30;;;11.70;99.90;;;;;;5098465;28;20201;-72
2021/05/23 07:28:34;;;;;;;6.83;4.27;;;11.70;99.90;;;;;;5102340;28;20229;-73
2021/05/23 07:31:01;;;;;;;5.90;4.00;;;11.50;99.90;;;;;;5100584;28;20205;-73
2021/05/23 07:33:28;;;;;;;7.10;4.07;;;11.30;99.90;;;;;;5097265;28;20569;-72
2021/05/23 07:35:55;;;;;;;4.83;4.30;;;11.40;99.90;;;;;;5105113;28;20250;-73
2021/05/23 07:38:21;;;;;;;5.43;4.30;;;11.50;99.90;;;;;;5103994;28;20567;-72
2021/05/23 07:40:49;;;;;;;6.77;4.50;;;11.60;99.90;;;;;;5100646;28;20193;-73
2021/05/23 07:43:15;;;;;;;7.67;5.07;;;11.50;99.90;;;;;;5100074;28;20221;-73
2021/05/23 07:45:42;;;;;;;5.67;3.83;;;11.60;99.90;;;;;;5098608;28;20201;-72
2021/05/23 07:48:09;;;;;;;8.63;4.60;;;11.50;99.90;;;;;;5104117;28;20224;-72
2021/05/23 07:50:36;;;;;;;6.40;4.10;;;11.70;99.90;;;;;;5096783;28;20567;-72
2021/05/23 07:53:02;;;;;;;7.23;4.30;;;11.60;99.90;;;;;;5107643;28;20201;-72
2021/05/23 07:55:29;;;;;;;6.73;4.13;;;11.80;99.90;;;;;;5106166;28;20754;-73
2021/05/23 07:57:57;;;;;;;4.77;4.20;;;11.80;99.90;;;;;;5105337;28;20213;-73
2021/05/23 08:00:24;;;;;;;5.53;4.50;;;11.90;99.90;;;;;;5101384;28;20677;-73
2021/05/23 08:02:50;;;;;;;5.80;4.47;;;11.70;99.90;;;;;;5100260;28;20730;-73
2021/05/23 08:05:17;;;;;;;7.50;4.30;;;11.70;99.90;;;;;;5099297;28;20206;-73
2021/05/23 08:07:44;;;;;;;6.43;4.40;;;11.70;99.90;;;;;;5097738;28;20217;-73
2021/05/23 08:10:12;;;;;;;5.20;4.23;;;11.70;99.90;;;;;;5101208;28;20204;-73
2021/05/23 08:12:38;;;;;;;5.03;4.13;;;11.70;99.90;;;;;;5099554;28;20242;-73
2021/05/23 08:15:08;;;;;;;5.27;3.83;;;11.40;99.90;;;;;;5106064;28;20216;-72
2021/05/23 08:17:35;;;;;;;4.97;3.83;;;11.40;99.90;;;;;;5099335;28;20189;-73
2021/05/23 08:20:02;;;;;;;5.00;4.20;;;11.40;99.90;;;;;;5100936;28;20628;-73
2021/05/23 08:22:29;;;;;;;4.30;3.90;;;11.40;99.90;;;;;;5103303;28;20197;-72
2021/05/23 08:24:55;;;;;;;5.60;3.60;;;11.30;99.90;;;;;;5098042;28;20215;-72
2021/05/23 08:27:22;;;;;;;8.13;4.43;;;11.30;99.90;;;;;;5098553;28;20224;-73
2021/05/23 08:29:48;;;;;;;5.27;3.87;;;11.10;99.90;;;;;;5101013;28;20687;-72
2021/05/23 08:32:16;;;;;;;4.30;3.53;;;11.10;99.90;;;;;;5102586;28;20201;-72
2021/05/23 08:34:42;;;;;;;4.10;3.70;;;11.20;99.90;;;;;;5096749;28;20213;-72
2021/05/23 08:37:09;;;;;;;6.57;3.50;;;11.10;99.90;;;;;;5099858;28;20246;-72
2021/05/23 08:39:36;;;;;;;4.23;3.07;;;11.20;99.90;;;;;;5102199;28;20670;-72
2021/05/23 08:42:02;;;;;;;4.80;3.40;;;11.10;99.90;;;;;;5103426;28;20288;-73
2021/05/23 08:44:29;;;;;;;5.40;3.20;;;11.20;99.90;;;;;;5100847;28;20198;-72
2021/05/23 08:46:55;;;;;;;5.23;3.70;;;10.80;99.90;;;;;;5100476;28;20204;-72
2021/05/23 08:49:24;;;;;;;5.07;3.53;;;10.80;99.90;;;;;;5095293;28;20739;-72
2021/05/23 08:51:51;;;;;;;3.80;3.40;;;10.80;99.90;;;;;;5103975;28;20559;-72
2021/05/23 08:54:18;;;;;;;4.10;3.40;;;11.20;99.90;;;;;;5095651;28;20658;-72
2021/05/23 08:56:46;;;;;;;6.07;3.60;;;11.30;99.90;;;;;;5094517;28;20208;-72
2021/05/23 08:59:13;;;;;;;4.47;3.40;;;11.70;99.90;;;;;;5093897;28;20202;-72
2021/05/23 09:01:40;;;;;;;4.03;3.43;;;11.80;99.90;;;;;;5101368;28;20594;-72
2021/05/23 09:04:09;;;;;;;3.57;3.23;;;12.00;99.90;;;;;;5100293;28;20207;-72
2021/05/23 09:06:38;;;;;;;4.50;3.07;;;11.80;99.90;;;;;;5092840;28;20230;-72
2021/05/23 09:09:06;;;;;;;4.93;3.37;;;11.50;99.90;;;;;;5097109;28;20270;-72
2021/05/23 09:11:34;;;;;;;7.53;3.47;;;11.50;99.90;;;;;;5099958;28;20205;-72
2021/05/23 09:14:00;;;;;;;5.13;3.00;;;11.50;99.90;;;;;;5095045;28;20201;-73
2021/05/23 09:16:37;;;;;;;3.27;2.97;;;11.40;99.90;;;;;;5103368;28;20213;-72
2021/05/23 09:19:03;;;;;;;5.00;3.23;;;11.30;99.90;;;;;;5095186;28;20205;-72
2021/05/23 09:21:33;;;;;;;4.50;3.40;;;11.20;99.90;;;;;;5100210;28;20246;-72
2021/05/23 09:24:02;;;;;;;6.47;3.93;;;11.30;99.90;;;;;;5102297;28;20193;-72
2021/05/23 09:26:30;;;;;;;4.23;3.70;;;11.20;99.90;;;;;;5101435;28;20197;-72
2021/05/23 09:29:04;;;;;;;4.03;3.30;;;11.30;99.90;;;;;;5101884;28;20218;-72
2021/05/23 09:31:31;;;;;;;4.73;3.43;;;11.50;99.90;;;;;;5099132;28;20200;-72
2021/05/23 09:33:58;;;;;;;3.47;3.03;;;11.50;99.90;;;;;;5100752;28;20210;-73
2021/05/23 09:36:25;;;;;;;5.10;3.37;;;11.20;99.90;;;;;;5095524;28;20258;-73
2021/05/23 09:38:56;;;;;;;4.03;3.23;;;11.10;99.90;;;;;;5100540;28;20563;-72
2021/05/23 09:41:25;;;;;;;4.53;3.37;;;11.40;99.90;;;;;;5095405;28;20197;-72
2021/05/23 09:44:10;;;;;;;3.67;3.37;;;11.50;99.90;;;;;;5095563;28;20665;-72
2021/05/23 09:46:37;;;;;;;4.40;3.10;;;11.60;99.90;;;;;;5100539;28;20233;-72
2021/05/23 09:49:03;;;;;;;4.30;3.00;;;11.70;99.90;;;;;;5092864;28;20279;-72
2021/05/23 09:51:30;;;;;;;4.00;3.10;;;11.70;99.90;;;;;;5090183;28;20206;-72
2021/05/23 09:54:00;;;;;;;3.70;3.20;;;11.70;99.90;;;;;;5092199;28;20202;-73
2021/05/23 09:56:32;;;;;;;3.17;2.87;;;11.70;99.90;;;;;;5090599;28;20202;-73
2021/05/23 09:58:59;;;;;;;4.53;3.30;;;11.60;99.90;;;;;;5094268;28;20544;-72
2021/05/23 10:01:29;;;;;;;3.40;3.10;;;11.40;99.90;;;;;;5092399;28;20200;-72
2021/05/23 10:03:57;;;;;;;3.20;2.93;;;11.40;99.90;;;;;;5091663;28;20202;-73
2021/05/23 10:06:27;;;;;;;3.20;2.90;;;11.50;99.90;;;;;;5099845;28;20284;-72
2021/05/23 10:08:54;;;;;;;3.43;2.73;;;11.50;99.90;;;;;;5096551;28;20513;-73
2021/05/23 10:11:21;;;;;;;3.33;3.03;;;11.30;99.90;;;;;;5089170;28;20297;-74
2021/05/23 10:13:49;;;;;;;3.27;2.20;;;11.30;99.90;;;;;;5091422;28;20814;-75
2021/05/23 10:16:17;;;;;;;3.70;2.30;;;11.10;99.90;;;;;;5092041;28;20260;-74
2021/05/23 10:18:45;;;;;;;2.03;1.90;;;11.10;99.90;;;;;;5085850;28;20678;-74
2021/05/23 10:21:13;;;;;;;2.27;1.83;;;11.20;99.90;;;;;;5093165;28;20208;-73
2021/05/23 10:23:46;;;;;;;2.10;2.00;;;11.10;99.90;;;;;;5090375;28;20209;-74
2021/05/23 10:26:14;;;;;;;2.67;1.80;;;11.30;99.90;;;;;;5096484;28;20828;-73
2021/05/23 10:28:45;;;;;;;2.40;2.10;;;11.40;99.90;;;;;;5089505;28;20232;-73
2021/05/23 10:31:13;;;;;;;2.97;2.00;;;11.30;99.90;;;;;;5088753;28;20243;-74
2021/05/23 10:33:51;;;;;;;1.83;1.73;;;11.20;99.90;;;;;;5088724;28;20211;-73
2021/05/23 10:36:31;;;;;;;2.10;2.00;;;11.10;99.90;;;;;;5093031;28;20727;-74
2021/05/23 10:38:59;;;;;;;2.03;1.93;;;11.10;99.90;;;;;;5092247;28;20217;-74
2021/05/23 10:41:26;;;;;;;1.50;1.40;;;11.20;99.90;;;;;;5090579;28;20675;-74
2021/05/23 10:43:59;;;;;;;1.90;1.73;;;11.20;99.90;;;;;;5094022;28;20209;-74
2021/05/23 10:46:27;;;;;;;1.90;1.30;;;11.10;99.90;;;;;;5093460;28;20212;-72
2021/05/23 10:48:55;;;;;;;1.70;1.60;;;11.10;99.90;;;;;;5098104;28;20367;-72
2021/05/23 10:51:22;;;;;;;2.10;1.90;;;11.20;99.90;;;;;;5096223;28;20223;-72
2021/05/23 10:53:50;;;;;;;1.53;1.43;;;11.30;99.90;;;;;;5098098;28;20208;-72
2021/05/23 10:56:22;;;;;;;1.70;1.60;;;11.40;99.90;;;;;;5090518;28;20555;-72
2021/05/23 10:58:56;;;;;;;1.70;1.60;;;11.40;99.90;;;;;;5091189;28;20215;-72
2021/05/23 11:01:41;;;;;;;1.60;1.50;;;11.40;99.90;;;;;;5093617;28;20210;-72
2021/05/23 11:04:09;;;;;;;1.63;1.53;;;11.50;99.90;;;;;;5096744;28;20602;-72
2021/05/23 11:06:35;;;;;;;1.60;1.30;;;11.60;99.90;;;;;;5087769;28;20879;-72
2021/05/23 11:09:09;;;;;;;1.70;1.60;;;11.50;99.90;;;;;;5093742;28;20231;-73
2021/05/23 11:11:36;;;;;;;1.40;1.30;;;11.80;99.90;;;;;;5092366;28;20594;-72
2021/05/23 11:14:17;;;;;;;1.50;1.40;;;11.60;99.90;;;;;;5091914;28;20216;-72
2021/05/23 11:16:52;;;;;;;1.97;1.80;;;11.70;99.90;;;;;;5092073;28;20254;-72
2021/05/23 11:19:20;;;;;;;2.13;2.03;;;11.90;99.90;;;;;;5091331;28;20209;-72
2021/05/23 11:21:48;;;;;;;1.90;1.80;;;11.90;99.90;;;;;;5091749;28;20675;-72
2021/05/23 11:24:16;;;;;;;2.93;2.13;;;12.10;99.90;;;;;;5096168;28;20243;-72
2021/05/23 11:26:43;;;;;;;2.30;2.10;;;12.10;99.90;;;;;;5095569;28;20201;-72
2021/05/23 11:29:10;;;;;;;2.07;1.97;;;12.40;99.90;;;;;;5091875;28;20235;-73
2021/05/23 11:31:38;;;;;;;2.80;2.30;;;12.40;99.90;;;;;;5094480;28;20205;-72
2021/05/23 11:34:07;;;;;;;2.40;2.20;;;12.20;99.90;;;;;;5093153;28;20590;-72
2021/05/23 11:36:35;;;;;;;2.30;2.10;;;12.10;99.90;;;;;;5092768;28;20205;-72
2021/05/23 11:39:06;;;;;;;3.57;2.57;;;11.90;99.90;;;;;;5095670;28;20211;-72
2021/05/23 11:41:34;;;;;;;2.70;2.50;;;11.80;99.90;;;;;;5092113;28;20208;-72
2021/05/23 11:44:01;;;;;;;3.27;2.60;;;11.80;99.90;;;;;;5089051;28;20254;-73
2021/05/23 11:46:29;;;;;;;4.37;2.87;;;11.70;99.90;;;;;;5094151;28;20215;-72
2021/05/23 11:48:57;;;;;;;7.57;3.20;;;11.60;99.90;;;;;;5092535;28;20218;-71
2021/05/23 11:51:27;;;;;;;3.10;2.80;;;11.60;99.90;;;;;;5097297;28;20220;-71
2021/05/23 11:53:56;;;;;;;5.27;3.43;;;11.40;99.90;;;;;;5090639;28;20209;-70
2021/05/23 11:56:24;;;;;;;5.10;3.20;;;11.50;99.90;;;;;;5097809;28;20212;-71
2021/05/23 11:58:53;;;;;;;5.97;4.03;;;11.50;99.90;;;;;;5089716;28;20428;-70
2021/05/23 12:01:21;;;;;;;5.73;4.77;;;11.60;99.90;;;;;;5092424;28;20209;-70
2021/05/23 12:03:56;;;;;;;4.77;4.23;;;11.70;99.90;;;;;;5094968;28;20216;-70
2021/05/23 12:06:23;;;;;;;6.17;4.10;;;11.70;99.90;;;;;;5091946;28;20687;-70
2021/05/23 12:08:50;;;;;;;5.80;3.97;;;11.80;99.90;;;;;;5093979;28;20615;-70
2021/05/23 12:11:17;;;;;;;5.87;4.50;;;12.00;99.90;;;;;;5090938;28;20266;-70
2021/05/23 12:13:45;;;;;;;5.23;4.13;;;12.10;99.90;;;;;;5094797;28;20208;-70
2021/05/23 12:16:13;;;;;;;5.50;4.13;;;12.40;99.90;;;;;;5091900;28;20209;-72
2021/05/23 12:18:42;;;;;;;5.40;4.40;;;12.80;99.90;;;;;;5092478;28;20224;-72
2021/05/23 12:21:12;;;;;;;6.93;5.50;;;13.10;99.90;;;;;;5091217;28;20216;-72
2021/05/23 12:23:41;;;;;;;6.33;5.03;;;13.70;99.90;;;;;;5087096;28;20288;-72
2021/05/23 12:26:09;;;;;;;6.97;4.47;;;13.80;99.90;;;;;;5090225;28;20275;-72
2021/05/23 12:28:38;;;;;;;6.93;4.10;;;13.70;99.90;;;;;;5095182;28;20709;-72
2021/05/23 12:31:06;;;;;;;6.57;4.30;;;13.70;99.90;;;;;;5093455;28;20208;-72
2021/05/23 12:33:33;;;;;;;7.33;4.50;;;13.80;99.90;;;;;;5096150;28;20667;-73
2021/05/23 12:36:09;;;;;;;6.93;5.27;;;14.10;99.90;;;;;;5094449;28;20260;-73
2021/05/23 12:38:37;;;;;;;4.73;4.23;;;14.70;99.90;;;;;;5088166;28;20207;-72
2021/05/23 12:41:06;;;;;;;5.40;4.00;;;15.00;99.90;;;;;;5096452;28;20318;-73
2021/05/23 12:43:35;;;;;;;8.13;4.93;;;15.40;99.90;;;;;;5097838;28;20699;-70
2021/05/23 12:46:03;;;;;;;8.37;4.50;;;15.50;99.90;;;;;;5090855;28;20207;-71
2021/05/23 12:48:32;;;;;;;6.63;4.07;;;15.30;99.90;;;;;;5100621;28;20682;-70
2021/05/23 12:50:59;;;;;;;7.10;4.03;;;15.50;99.90;;;;;;5093851;28;20208;-73